Terminal Aerodrome Forecast
Issued by NWS

Home | Current Version | Previous Version | Text Only | Print | Product List | Glossary On
Versions: 1 2 3 4 5 6 7 8 9 10 11 12 13 14 15 16 17 18 19 20 21 22 23 24 25 26 27 28 29 30 31 32 33 34 35 36 37 38 39
747
FTUS41 KBOX 222347 AAB
TAFBAF
TAF AMD
KBAF 222347Z 2300/2324 04008KT P6SM OVC010
     FM230800 04009KT P6SM OVC015
     FM231000 05010KT P6SM VCSH OVC015
     FM231400 05012KT 6SM BR VCSH OVC020
     FM231600 05014G26KT P6SM VCSH OVC015
     FM231700 06016G28KT P6SM VCSH OVC025
     FM232100 05020G30KT P6SM VCSH OVC015=

USA.gov is the U.S. government's official web portal to all federal, state and local government web resources and services.